Time;durP1;ratioP1;P1;durP2;ratioP2;P2;SDS_P1;SDS_P2;PMS_P1;PMS_P2;Temp;Humidity;BMP_temperature;BMP_pressure;BME280_temperature;BME280_humidity;BME280_pressure;Samples;Min_cycle;Max_cycle;Signal;HPM_P1;HPM_P2
2023/09/21 00:01:24;;;;;;;2.93;1.23;;;;;;;16.67;99.37;100223.19;5055712;28;20438;-72
2023/09/21 00:03:51;;;;;;;2.10;0.63;;;;;;;16.67;99.67;100221.25;5084229;22;20497;-70
2023/09/21 00:06:18;;;;;;;3.87;1.33;;;;;;;16.71;99.48;100224.88;5075454;28;20548;-71
2023/09/21 00:08:47;;;;;;;2.30;0.70;;;;;;;16.74;99.38;100223.41;5075547;28;20913;-71
2023/09/21 00:11:14;;;;;;;2.60;0.80;;;;;;;16.74;99.99;100209.75;5075331;28;20446;-71
2023/09/21 00:13:41;;;;;;;3.93;1.23;;;;;;;16.77;100.00;100223.47;5075276;28;20429;-71
2023/09/21 00:16:12;;;;;;;2.40;0.80;;;;;;;16.79;99.97;100218.47;5075176;28;20506;-71
2023/09/21 00:18:42;;;;;;;2.90;1.10;;;;;;;16.83;99.57;100224.03;5075640;28;20448;-72
2023/09/21 00:21:09;;;;;;;4.10;1.00;;;;;;;16.83;99.18;100218.56;5075650;28;20878;-71
2023/09/21 00:23:36;;;;;;;2.73;0.93;;;;;;;16.82;99.18;100209.56;5075138;28;20530;-71
2023/09/21 00:26:03;;;;;;;2.70;1.10;;;;;;;16.86;98.92;100210.44;5075209;28;20458;-71
2023/09/21 00:28:31;;;;;;;2.50;0.93;;;;;;;16.85;98.68;100208.84;5075008;28;20468;-71
2023/09/21 00:30:59;;;;;;;2.43;1.00;;;;;;;16.92;98.52;100208.25;5074672;28;20469;-71
2023/09/21 00:33:28;;;;;;;2.50;0.90;;;;;;;16.96;98.45;100197.41;5075177;28;20777;-71
2023/09/21 00:35:55;;;;;;;2.40;0.60;;;;;;;16.99;98.03;100200.19;5074438;28;21048;-71
2023/09/21 00:38:22;;;;;;;2.97;1.07;;;;;;;17.03;98.12;100189.34;5074436;28;20441;-71
2023/09/21 00:40:49;;;;;;;2.30;0.90;;;;;;;17.03;97.64;100197.56;5075175;28;20430;-71
2023/09/21 00:43:21;;;;;;;2.80;0.87;;;;;;;17.10;97.47;100198.53;5074917;28;20492;-71
2023/09/21 00:45:50;;;;;;;3.13;1.30;;;;;;;17.11;97.54;100199.31;5074583;28;20492;-71
2023/09/21 00:48:22;;;;;;;2.43;0.80;;;;;;;17.15;97.25;100197.47;5074545;28;20434;-71
2023/09/21 00:50:51;;;;;;;2.47;0.90;;;;;;;17.17;97.36;100195.16;5074768;28;20436;-72
2023/09/21 00:53:19;;;;;;;2.90;0.80;;;;;;;17.18;95.92;100196.75;5074812;28;20536;-71
2023/09/21 00:55:51;;;;;;;2.60;0.80;;;;;;;17.16;92.91;100201.78;5074390;28;20437;-71
2023/09/21 00:58:19;;;;;;;2.83;0.87;;;;;;;17.14;91.19;100198.63;5074923;28;20430;-71
2023/09/21 01:00:46;;;;;;;2.50;0.93;;;;;;;17.09;90.99;100190.69;5074321;28;20486;-71
2023/09/21 01:03:13;;;;;;;2.80;1.20;;;;;;;17.08;92.73;100189.84;5073655;28;21022;-71
2023/09/21 01:05:41;;;;;;;3.20;1.00;;;;;;;17.10;93.99;100186.78;5073887;28;20437;-71
2023/09/21 01:08:11;;;;;;;4.00;1.20;;;;;;;17.08;94.48;100189.84;5074197;28;20439;-71
2023/09/21 01:10:40;;;;;;;2.63;0.93;;;;;;;17.09;94.51;100183.25;5074135;28;20452;-71
2023/09/21 01:13:07;;;;;;;3.57;1.30;;;;;;;17.12;93.80;100179.00;5073011;28;20448;-71
2023/09/21 01:15:34;;;;;;;3.03;1.10;;;;;;;17.14;93.65;100173.97;5074350;28;20457;-71
2023/09/21 01:18:01;;;;;;;3.17;1.40;;;;;;;17.18;93.66;100174.03;5074064;28;20473;-71
2023/09/21 01:20:32;;;;;;;3.13;0.87;;;;;;;17.21;94.13;100171.41;5074001;28;20439;-71
2023/09/21 01:23:16;;;;;;;2.80;1.10;;;;;;;17.23;94.12;100160.91;5073737;28;20466;-71
2023/09/21 01:25:49;;;;;;;2.60;1.03;;;;;;;17.23;94.50;100157.38;5073838;28;20505;-71
2023/09/21 01:28:18;;;;;;;3.27;1.43;;;;;;;17.21;94.49;100165.91;5073567;28;20869;-71
2023/09/21 01:30:45;;;;;;;2.70;0.73;;;;;;;17.21;93.50;100157.72;5073515;28;20801;-71
2023/09/21 01:33:12;;;;;;;3.07;1.00;;;;;;;17.20;93.34;100153.38;5074090;28;20541;-71
2023/09/21 01:35:40;;;;;;;3.33;1.20;;;;;;;17.18;93.02;100152.97;5073648;28;20520;-71
2023/09/21 01:38:07;;;;;;;3.33;1.00;;;;;;;17.17;93.35;100159.56;5073746;28;20442;-71
2023/09/21 01:40:35;;;;;;;2.97;1.27;;;;;;;17.14;92.99;100157.56;5073353;28;20433;-71
2023/09/21 01:43:05;;;;;;;2.67;0.83;;;;;;;17.15;93.10;100145.47;5073554;28;20485;-71
2023/09/21 01:45:32;;;;;;;3.50;1.23;;;;;;;17.18;92.92;100158.44;5073940;28;20422;-71
2023/09/21 01:48:00;;;;;;;2.57;1.07;;;;;;;17.20;92.66;100164.34;5073918;28;20437;-71
2023/09/21 01:50:28;;;;;;;2.30;0.80;;;;;;;17.18;93.09;100166.66;5073653;28;20441;-72
2023/09/21 01:52:55;;;;;;;3.13;1.13;;;;;;;17.18;92.83;100155.69;5073655;28;20867;-71
2023/09/21 01:55:22;;;;;;;2.60;0.80;;;;;;;17.16;92.63;100158.00;5074277;28;20441;-71
2023/09/21 01:57:48;;;;;;;2.43;0.90;;;;;;;17.13;92.96;100153.22;5073765;28;20879;-71
2023/09/21 02:00:26;;;;;;;2.10;0.70;;;;;;;17.08;93.37;100140.59;5073840;28;20522;-71
2023/09/21 02:02:53;;;;;;;3.27;1.30;;;;;;;17.06;92.94;100139.38;5073008;28;20485;-71
2023/09/21 02:05:20;;;;;;;3.17;1.33;;;;;;;17.07;93.33;100138.22;5073427;28;20440;-71
2023/09/21 02:07:47;;;;;;;2.37;0.87;;;;;;;17.09;93.73;100135.94;5073358;28;20541;-71
2023/09/21 02:10:16;;;;;;;2.50;0.90;;;;;;;17.07;93.90;100133.53;5073443;28;20464;-71
2023/09/21 02:12:53;;;;;;;3.37;0.93;;;;;;;17.05;94.27;100132.34;5073369;28;20476;-71
2023/09/21 02:15:21;;;;;;;2.73;0.97;;;;;;;17.04;95.05;100127.97;5073553;28;20424;-71
2023/09/21 02:17:48;;;;;;;2.40;0.80;;;;;;;17.01;95.00;100129.50;5073662;28;21015;-71
2023/09/21 02:20:16;;;;;;;3.13;1.27;;;;;;;17.00;95.05;100127.09;5072988;28;20473;-71
2023/09/21 02:22:46;;;;;;;3.60;1.20;;;;;;;16.97;94.93;100120.41;5072889;28;21083;-71
2023/09/21 02:25:13;;;;;;;2.67;0.93;;;;;;;16.94;94.95;100114.84;5076398;28;20524;-71
2023/09/21 02:27:41;;;;;;;3.90;1.10;;;;;;;16.90;95.39;100121.03;5077421;28;20960;-71
2023/09/21 02:30:11;;;;;;;3.50;1.17;;;;;;;16.87;95.25;100119.03;5077294;28;20439;-71
2023/09/21 02:32:40;;;;;;;2.53;0.90;;;;;;;16.86;95.04;100114.69;5077240;28;20417;-71
2023/09/21 02:35:08;;;;;;;2.83;1.20;;;;;;;16.88;94.58;100112.41;5077481;28;20447;-70
2023/09/21 02:37:34;;;;;;;3.37;1.40;;;;;;;16.86;93.07;100116.63;5077402;28;20474;-71
2023/09/21 02:40:01;;;;;;;3.10;0.97;;;;;;;16.88;93.60;100109.66;5077088;28;20532;-71
2023/09/21 02:42:28;;;;;;;2.80;1.20;;;;;;;16.92;93.45;100106.22;5076607;28;20448;-71
2023/09/21 02:44:55;;;;;;;3.40;1.47;;;;;;;16.92;93.72;100103.50;5076594;28;20849;-71
2023/09/21 02:47:23;;;;;;;3.87;0.97;;;;;;;16.94;93.23;100109.38;5076903;28;20465;-71
2023/09/21 02:49:52;;;;;;;4.00;1.57;;;;;;;16.93;93.58;100107.81;5076838;28;20468;-71
2023/09/21 02:52:20;;;;;;;2.27;0.80;;;;;;;16.92;94.13;100104.28;5076871;28;20441;-71
2023/09/21 02:54:47;;;;;;;2.97;1.00;;;;;;;16.92;93.99;100107.00;5077076;28;20441;-71
2023/09/21 02:57:14;;;;;;;2.57;1.00;;;;;;;16.92;94.03;100103.50;5076404;28;20531;-71
2023/09/21 02:59:40;;;;;;;2.60;1.20;;;;;;;16.87;93.86;100104.56;5077043;28;20502;-71
2023/09/21 03:02:09;;;;;;;2.10;0.60;;;;;;;16.90;94.32;100109.28;5076817;28;20990;-71
2023/09/21 03:04:35;;;;;;;2.73;0.97;;;;;;;16.86;95.02;100103.72;5076353;28;20593;-71
2023/09/21 03:07:04;;;;;;;2.90;1.20;;;;;;;16.82;96.38;100100.16;5076464;28;20457;-71
2023/09/21 03:09:30;;;;;;;2.90;1.00;;;;;;;16.82;96.67;100091.13;5076480;28;20952;-71
2023/09/21 03:11:58;;;;;;;3.10;1.50;;;;;;;16.78;96.79;100093.00;5076601;28;20447;-71
2023/09/21 03:14:25;;;;;;;3.17;1.30;;;;;;;16.78;97.25;100091.06;5076769;28;20511;-72
2023/09/21 03:16:52;;;;;;;2.50;1.13;;;;;;;16.78;97.53;100082.84;5075946;28;20824;-71
2023/09/21 03:19:19;;;;;;;2.73;1.20;;;;;;;16.75;98.02;100075.34;5076350;28;20441;-71
2023/09/21 03:21:45;;;;;;;3.60;1.33;;;;;;;16.75;98.27;100078.09;5076338;28;20447;-71
2023/09/21 03:24:13;;;;;;;3.40;1.27;;;;;;;16.74;98.80;100083.94;5076012;28;20483;-71
2023/09/21 03:26:40;;;;;;;3.73;1.30;;;;;;;16.69;99.07;100084.13;5075787;28;20515;-70
2023/09/21 03:29:09;;;;;;;3.00;1.00;;;;;;;16.62;99.77;100076.56;5075786;28;20445;-70
2023/09/21 03:31:36;;;;;;;2.40;0.77;;;;;;;16.58;100.00;100072.94;5076449;28;20456;-70
2023/09/21 03:34:05;;;;;;;4.20;1.47;;;;;;;16.55;100.00;100077.19;5076107;28;20438;-71
2023/09/21 03:36:35;;;;;;;3.33;1.03;;;;;;;16.57;100.00;100066.69;5075124;28;20466;-71
2023/09/21 03:39:08;;;;;;;3.10;0.83;;;;;;;16.55;99.41;100062.72;5075988;28;20464;-71
2023/09/21 03:41:36;;;;;;;3.27;1.13;;;;;;;16.52;99.38;100066.19;5076310;28;20426;-71
2023/09/21 03:44:05;;;;;;;2.67;0.93;;;;;;;16.49;99.51;100066.88;5075839;28;20572;-71
2023/09/21 03:46:32;;;;;;;2.93;1.30;;;;;;;16.45;100.00;100057.78;5075746;28;20462;-71
2023/09/21 03:48:59;;;;;;;2.40;0.87;;;;;;;16.39;98.11;100057.28;5076073;28;20503;-71
2023/09/21 03:51:26;;;;;;;3.97;1.20;;;;;;;16.32;96.37;100060.59;5076106;28;20442;-71
2023/09/21 03:53:54;;;;;;;3.17;1.17;;;;;;;16.23;93.66;100051.78;5076096;28;20465;-71
2023/09/21 03:56:22;;;;;;;3.03;1.20;;;;;;;16.21;92.39;100053.31;5075394;28;20471;-71
2023/09/21 03:58:51;;;;;;;2.90;0.93;;;;;;;16.15;92.97;100052.75;5075618;28;20798;-71
2023/09/21 04:01:18;;;;;;;3.80;1.33;;;;;;;16.14;93.76;100046.50;5075857;28;20499;-71
2023/09/21 04:03:44;;;;;;;3.20;1.23;;;;;;;16.08;96.29;100034.25;5075465;28;20488;-71
2023/09/21 04:06:11;;;;;;;3.60;1.53;;;;;;;16.10;97.18;100039.34;5075042;28;20552;-71
2023/09/21 04:08:38;;;;;;;3.33;1.30;;;;;;;16.08;99.17;100044.38;5075385;28;20473;-71
2023/09/21 04:11:05;;;;;;;2.70;1.00;;;;;;;16.11;100.00;100043.66;5075414;28;20448;-70
2023/09/21 04:13:32;;;;;;;2.80;1.00;;;;;;;16.07;100.00;100038.13;5075713;28;20433;-71
2023/09/21 04:16:05;;;;;;;2.60;0.90;;;;;;;16.05;100.00;100040.41;5075221;28;20518;-71
2023/09/21 04:18:31;;;;;;;2.67;1.20;;;;;;;16.03;100.00;100031.78;5075236;28;20437;-71
2023/09/21 04:20:59;;;;;;;3.17;1.37;;;;;;;15.99;100.00;100030.09;5075163;28;20917;-70
2023/09/21 04:23:27;;;;;;;3.67;1.73;;;;;;;15.91;100.00;100031.06;5075078;28;21023;-70
2023/09/21 04:25:55;;;;;;;3.07;1.40;;;;;;;15.84;100.00;100034.38;5075064;28;20462;-70
2023/09/21 04:28:22;;;;;;;2.73;1.10;;;;;;;15.82;100.00;100032.00;5075049;28;20445;-71
2023/09/21 04:30:49;;;;;;;6.30;1.23;;;;;;;15.75;100.00;100034.53;5074834;28;20441;-71
2023/09/21 04:36:30;;;;;;;3.03;1.20;;;;;;;15.69;100.00;100030.47;5055799;28;20464;-71
2023/09/21 04:38:57;;;;;;;7.50;1.73;;;;;;;15.61;100.00;100029.47;5074443;28;20448;-71
2023/09/21 04:41:23;;;;;;;3.87;1.40;;;;;;;15.58;100.00;100029.34;5074713;28;20469;-70
2023/09/21 04:43:50;;;;;;;3.57;1.20;;;;;;;15.57;100.00;100025.84;5074348;28;20485;-70
2023/09/21 04:46:19;;;;;;;2.70;0.93;;;;;;;15.50;100.00;100024.88;5074525;28;20457;-70
2023/09/21 04:48:46;;;;;;;3.30;1.23;;;;;;;15.44;98.73;100029.75;5074232;28;20441;-71
2023/09/21 04:51:15;;;;;;;2.27;0.90;;;;;;;15.38;98.73;100028.44;5074697;28;20439;-70
2023/09/21 04:53:43;;;;;;;3.23;1.20;;;;;;;15.38;100.00;100026.50;5074539;28;20450;-70
2023/09/21 04:56:10;;;;;;;3.27;1.20;;;;;;;15.29;100.00;100025.84;5074594;28;21023;-70
2023/09/21 04:58:37;;;;;;;2.40;0.90;;;;;;;15.28;100.00;100029.72;5074590;28;20977;-71
2023/09/21 05:01:10;;;;;;;4.93;1.80;;;;;;;15.30;100.00;100021.97;5075072;28;20484;-71
2023/09/21 05:03:37;;;;;;;2.50;1.10;;;;;;;15.33;100.00;100023.22;5074314;28;20497;-70
2023/09/21 05:06:05;;;;;;;3.13;1.70;;;;;;;15.35;100.00;100024.44;5075223;28;20453;-72
2023/09/21 05:08:36;;;;;;;3.10;1.40;;;;;;;15.43;100.00;100019.19;5074455;28;20922;-70
2023/09/21 05:11:05;;;;;;;3.13;1.23;;;;;;;15.50;100.00;100019.41;5073921;28;20516;-72
2023/09/21 05:13:31;;;;;;;2.83;1.20;;;;;;;15.55;100.00;100022.66;5073952;28;20803;-72
2023/09/21 05:15:59;;;;;;;3.43;1.40;;;;;;;15.62;100.00;100027.53;5074495;28;20815;-75
2023/09/21 05:18:26;;;;;;;3.00;0.97;;;;;;;15.67;100.00;100019.13;5074112;28;20448;-73
2023/09/21 05:20:53;;;;;;;3.03;1.20;;;;;;;15.73;100.00;100011.47;5074044;28;20469;-73
2023/09/21 05:23:19;;;;;;;4.10;1.70;;;;;;;15.76;100.00;100016.22;5073905;28;20468;-73
2023/09/21 05:25:46;;;;;;;5.93;1.63;;;;;;;15.81;100.00;100019.50;5073529;28;20809;-73
2023/09/21 05:28:16;;;;;;;4.07;1.37;;;;;;;15.85;100.00;100020.41;5073864;28;20956;-72
2023/09/21 05:30:43;;;;;;;4.10;1.50;;;;;;;15.90;100.00;100019.34;5073437;28;20486;-69
2023/09/21 05:33:10;;;;;;;2.73;1.07;;;;;;;15.96;100.00;100014.41;5073886;28;20445;-69
2023/09/21 05:35:37;;;;;;;6.07;1.87;;;;;;;15.99;100.00;100019.19;5074088;28;20520;-69
2023/09/21 05:38:05;;;;;;;3.87;1.67;;;;;;;16.04;100.00;100022.44;5073988;28;20906;-69
2023/09/21 05:40:32;;;;;;;3.80;1.47;;;;;;;16.11;100.00;100016.34;5073575;28;20545;-69
2023/09/21 05:42:59;;;;;;;2.53;1.10;;;;;;;16.14;100.00;100018.38;5074023;28;20452;-70
2023/09/21 05:45:27;;;;;;;3.40;1.43;;;;;;;16.18;100.00;100015.75;5073925;28;20487;-71
2023/09/21 05:47:54;;;;;;;5.40;1.90;;;;;;;16.24;100.00;100017.84;5073917;28;20491;-72
2023/09/21 05:50:20;;;;;;;3.10;1.23;;;;;;;16.30;100.00;100018.38;5073193;28;20437;-72
2023/09/21 05:52:47;;;;;;;2.60;1.07;;;;;;;16.31;100.00;100007.09;5073345;28;20528;-73
2023/09/21 05:55:15;;;;;;;3.00;1.20;;;;;;;16.36;100.00;100011.50;5073207;28;20921;-74
2023/09/21 05:57:43;;;;;;;2.77;1.10;;;;;;;16.39;100.00;100008.06;5073642;28;20473;-75
2023/09/21 06:00:12;;;;;;;3.00;1.10;;;;;;;16.46;100.00;100005.47;5073380;28;20442;-74
2023/09/21 06:02:40;;;;;;;5.90;1.20;;;;;;;16.53;100.00;100000.19;5087152;22;20574;-70
2023/09/21 06:05:08;;;;;;;3.00;1.30;;;;;;;16.56;100.00;100004.16;5074022;28;20471;-70
2023/09/21 06:07:35;;;;;;;4.87;1.50;;;;;;;16.61;100.00;100012.88;5073732;28;20479;-70
2023/09/21 06:10:06;;;;;;;4.20;1.70;;;;;;;16.67;100.00;100004.41;5073853;28;20529;-70
2023/09/21 06:12:32;;;;;;;2.87;1.20;;;;;;;16.68;100.00;100001.31;5074268;28;20426;-70
2023/09/21 06:15:00;;;;;;;4.70;1.77;;;;;;;16.74;100.00;99996.41;5073820;28;20437;-70
2023/09/21 06:17:26;;;;;;;3.70;1.50;;;;;;;16.77;100.00;100004.66;5073556;28;20866;-70
2023/09/21 06:19:54;;;;;;;4.40;1.40;;;;;;;16.83;99.83;100000.50;5073610;28;20451;-71
2023/09/21 06:22:21;;;;;;;2.83;1.40;;;;;;;16.89;99.42;100001.81;5073431;28;20520;-72
2023/09/21 06:24:47;;;;;;;2.57;1.00;;;;;;;16.95;99.48;99998.78;5073559;28;20484;-72
2023/09/21 06:27:15;;;;;;;3.40;1.37;;;;;;;16.96;97.22;100003.13;5073647;28;20497;-73
2023/09/21 06:29:42;;;;;;;3.87;1.63;;;;;;;17.10;97.13;100003.44;5073788;28;20528;-72
2023/09/21 06:32:11;;;;;;;4.13;1.50;;;;;;;17.16;97.79;100001.97;5073979;28;20449;-72
2023/09/21 06:34:41;;;;;;;3.10;1.33;;;;;;;17.21;97.96;99995.41;5073634;28;20501;-72
2023/09/21 06:37:09;;;;;;;3.67;1.70;;;;;;;17.26;96.17;99995.91;5073573;28;20465;-72
2023/09/21 06:39:36;;;;;;;4.97;1.37;;;;;;;17.29;93.21;100000.69;5073834;28;20544;-72
2023/09/21 06:42:03;;;;;;;3.43;1.30;;;;;;;17.36;92.83;99992.63;5073177;28;20488;-72
2023/09/21 06:44:30;;;;;;;6.40;1.77;;;;;;;17.45;92.00;99989.66;5073497;28;20482;-68
2023/09/21 06:46:56;;;;;;;2.50;1.00;;;;;;;17.48;91.30;99988.13;5073347;28;20591;-72
2023/09/21 06:49:23;;;;;;;4.20;1.70;;;;;;;17.59;91.78;99987.19;5073745;28;20524;-72
2023/09/21 06:51:50;;;;;;;3.50;1.37;;;;;;;17.70;91.88;99979.16;5073613;28;20445;-72
2023/09/21 06:54:19;;;;;;;3.43;1.10;;;;;;;17.85;90.66;99983.00;5073058;28;21015;-72
2023/09/21 06:56:46;;;;;;;2.80;1.00;;;;;;;17.90;90.67;99978.00;5073307;28;20461;-72
2023/09/21 06:59:12;;;;;;;3.43;1.20;;;;;;;17.99;89.69;99985.19;5073244;28;20501;-72
2023/09/21 07:01:39;;;;;;;2.60;0.97;;;;;;;18.05;89.81;99986.44;5072881;28;20451;-72
2023/09/21 07:04:07;;;;;;;3.57;1.40;;;;;;;18.10;89.53;99994.34;5072750;28;20488;-72
2023/09/21 07:06:35;;;;;;;6.93;2.03;;;;;;;18.09;90.89;99982.59;5073100;28;20467;-72
2023/09/21 07:09:02;;;;;;;2.40;1.00;;;;;;;18.14;91.35;99984.25;5073461;28;20536;-72
2023/09/21 07:11:32;;;;;;;3.23;1.03;;;;;;;18.16;91.61;99984.69;5074707;28;20479;-72
2023/09/21 07:13:58;;;;;;;2.97;1.10;;;;;;;18.21;91.52;99984.38;5077018;28;20445;-72
2023/09/21 07:16:26;;;;;;;2.47;1.00;;;;;;;18.31;90.36;99988.44;5076703;28;20953;-72
2023/09/21 07:18:53;;;;;;;3.30;1.30;;;;;;;18.37;90.77;99978.72;5076342;28;20451;-72
2023/09/21 07:21:20;;;;;;;3.03;1.17;;;;;;;18.49;89.45;99981.28;5076882;28;20539;-72
2023/09/21 07:23:46;;;;;;;2.93;1.30;;;;;;;18.62;88.83;99981.84;5076568;28;20437;-72
2023/09/21 07:26:13;;;;;;;2.50;0.83;;;;;;;18.76;88.67;99984.81;5076602;28;20461;-72
2023/09/21 07:28:41;;;;;;;3.10;1.10;;;;;;;18.89;89.09;99988.91;5076624;28;20516;-71
2023/09/21 07:31:09;;;;;;;3.20;1.40;;;;;;;19.00;89.33;99978.09;5076696;28;20996;-72
2023/09/21 07:33:35;;;;;;;3.47;1.60;;;;;;;19.12;88.31;99990.78;5076520;28;20902;-71
2023/09/21 07:36:03;;;;;;;4.60;1.57;;;;;;;19.25;86.56;99994.06;5076462;28;20541;-70
2023/09/21 07:38:30;;;;;;;2.60;0.90;;;;;;;19.42;82.95;99999.00;5076467;28;20449;-71
2023/09/21 07:40:56;;;;;;;3.40;1.73;;;;;;;19.59;82.24;99989.38;5076496;28;20477;-70
2023/09/21 07:43:23;;;;;;;3.30;1.47;;;;;;;19.74;80.92;99996.59;5075840;28;20437;-70
2023/09/21 07:45:53;;;;;;;3.90;1.83;;;;;;;19.91;79.46;99990.50;5076202;28;20495;-69
2023/09/21 07:48:22;;;;;;;2.63;1.00;;;;;;;20.05;81.45;99991.78;5075808;28;20424;-70
2023/09/21 07:50:49;;;;;;;2.97;1.33;;;;;;;20.17;78.31;99988.75;5076467;28;20471;-71
2023/09/21 07:53:16;;;;;;;5.27;1.33;;;;;;;20.32;77.28;99984.97;5076405;28;20437;-68
2023/09/21 07:55:43;;;;;;;3.13;1.20;;;;;;;20.48;77.55;99986.66;5075917;28;20544;-70
2023/09/21 07:58:10;;;;;;;3.50;1.43;;;;;;;20.56;77.69;99986.31;5076083;28;20491;-71
2023/09/21 08:00:36;;;;;;;2.37;1.00;;;;;;;20.60;78.12;99980.84;5076403;28;20437;-71
2023/09/21 08:03:05;;;;;;;2.80;1.17;;;;;;;20.66;76.48;99971.84;5075973;28;20453;-73
2023/09/21 08:05:32;;;;;;;3.77;1.37;;;;;;;20.70;77.50;99966.34;5076722;28;20487;-72
2023/09/21 08:07:59;;;;;;;3.50;1.27;;;;;;;20.73;77.23;99967.56;5076778;28;20437;-75
2023/09/21 08:10:26;;;;;;;3.03;1.13;;;;;;;20.75;78.02;99957.72;5076520;28;20527;-75
2023/09/21 08:12:53;;;;;;;3.37;1.27;;;;;;;20.77;79.42;99958.16;5060327;28;20445;-75
2023/09/21 08:15:21;;;;;;;2.50;1.03;;;;;;;20.79;78.84;99952.25;5077404;28;20434;-75
2023/09/21 08:17:47;;;;;;;3.73;1.03;;;;;;;20.87;78.40;99948.34;5076561;28;20970;-75
2023/09/21 08:20:15;;;;;;;2.63;1.20;;;;;;;20.86;77.41;99949.53;5077614;28;20529;-75
2023/09/21 08:22:47;;;;;;;3.47;1.13;;;;;;;20.89;76.76;99959.75;5076691;28;20453;-75
2023/09/21 08:25:14;;;;;;;2.70;1.10;;;;;;;21.06;75.87;99955.50;5076203;28;20466;-75
2023/09/21 08:27:40;;;;;;;3.73;1.20;;;;;;;21.24;74.38;99956.34;5076910;28;20465;-76
2023/09/21 08:30:08;;;;;;;2.70;1.10;;;;;;;21.41;74.05;99949.34;5076042;28;20437;-75
2023/09/21 08:32:34;;;;;;;3.27;1.20;;;;;;;21.49;74.27;99955.69;5076248;28;20528;-75
2023/09/21 08:35:01;;;;;;;3.77;0.90;;;;;;;21.60;74.75;99950.97;5076401;28;20437;-75
2023/09/21 08:37:31;;;;;;;2.80;1.10;;;;;;;21.80;72.38;99956.91;5075797;28;20488;-75
2023/09/21 08:39:58;;;;;;;2.80;1.00;;;;;;;21.91;72.41;99966.78;5076074;28;20499;-75
2023/09/21 08:42:25;;;;;;;3.63;1.53;;;;;;;21.93;73.93;99952.59;5077161;28;20913;-75
2023/09/21 08:44:52;;;;;;;3.03;1.27;;;;;;;22.00;72.53;99955.34;5076453;28;20489;-75
2023/09/21 08:47:20;;;;;;;5.27;1.33;;;;;;;22.13;71.78;99950.25;5076608;28;20544;-75
2023/09/21 08:49:48;;;;;;;2.63;0.80;;;;;;;22.24;72.33;99956.56;5076633;28;20469;-74
2023/09/21 08:52:15;;;;;;;3.00;1.20;;;;;;;22.34;72.75;99960.47;5076142;28;20517;-75
2023/09/21 08:54:43;;;;;;;2.77;1.13;;;;;;;22.31;73.81;99967.59;5078373;28;20461;-75
2023/09/21 08:57:11;;;;;;;2.83;0.83;;;;;;;22.28;73.97;99957.34;5060589;28;20472;-73
2023/09/21 08:59:41;;;;;;;3.03;1.00;;;;;;;22.31;74.57;99956.56;5075466;28;20444;-75
2023/09/21 09:02:11;;;;;;;2.50;0.80;;;;;;;22.34;74.40;99950.22;5075042;28;20441;-71
2023/09/21 09:04:39;;;;;;;2.47;0.87;;;;;;;22.46;73.80;99953.75;5078164;28;20496;-74
2023/09/21 09:07:06;;;;;;;2.70;0.93;;;;;;;22.53;74.50;99954.53;5080665;28;20519;-74
2023/09/21 09:09:33;;;;;;;2.70;0.90;;;;;;;22.57;73.92;99954.50;5081881;28;20520;-73
2023/09/21 09:12:01;;;;;;;3.73;1.10;;;;;;;22.69;72.65;99954.09;5081231;28;20814;-73
2023/09/21 09:14:28;;;;;;;3.10;1.20;;;;;;;22.80;70.65;99956.81;5080151;28;20452;-73
2023/09/21 09:16:55;;;;;;;2.73;1.13;;;;;;;22.97;69.16;99957.97;5081129;28;20464;-74
2023/09/21 09:19:22;;;;;;;8.10;1.10;;;;;;;23.14;68.33;99959.88;5080280;28;20452;-74
2023/09/21 09:21:50;;;;;;;3.07;1.20;;;;;;;23.20;68.71;99958.28;5081294;28;20483;-74
2023/09/21 09:24:17;;;;;;;2.70;1.07;;;;;;;23.31;69.06;99956.25;5081471;28;20447;-74
2023/09/21 09:26:44;;;;;;;4.43;1.70;;;;;;;23.34;69.40;99949.13;5082573;28;20532;-73
2023/09/21 09:29:13;;;;;;;2.73;1.00;;;;;;;23.38;68.59;99947.94;5077927;28;20795;-73
2023/09/21 09:31:41;;;;;;;2.97;1.10;;;;;;;23.37;70.89;99943.59;5080687;28;21016;-74
2023/09/21 09:34:16;;;;;;;4.30;1.33;;;;;;;23.34;71.66;99935.31;5083380;28;20457;-75
2023/09/21 09:36:43;;;;;;;2.40;0.80;;;;;;;23.30;70.51;99935.31;5082082;28;20964;-74
2023/09/21 09:39:14;;;;;;;3.33;1.03;;;;;;;23.30;71.48;99927.03;5083284;28;20470;-75
2023/09/21 09:41:41;;;;;;;3.10;1.30;;;;;;;23.30;72.77;99921.50;5082867;28;20418;-74
2023/09/21 09:44:09;;;;;;;2.40;1.00;;;;;;;23.36;72.11;99925.41;5081543;28;20434;-74
2023/09/21 09:46:42;;;;;;;4.67;1.43;;;;;;;23.47;70.80;99930.09;5082735;28;20498;-74
2023/09/21 09:49:10;;;;;;;2.70;1.10;;;;;;;23.62;68.04;99921.28;5081803;28;20430;-74
2023/09/21 09:51:42;;;;;;;2.20;0.80;;;;;;;23.70;68.46;99922.06;5081317;28;20445;-75
2023/09/21 09:54:10;;;;;;;3.00;1.10;;;;;;;23.80;68.43;99909.34;5081602;28;20422;-73
2023/09/21 09:56:41;;;;;;;2.77;1.10;;;;;;;23.88;69.03;99914.41;5081534;28;20468;-74
2023/09/21 09:59:11;;;;;;;2.77;1.00;;;;;;;23.95;70.21;99902.50;5082379;28;20453;-74
2023/09/21 10:01:41;;;;;;;2.80;0.93;;;;;;;24.03;69.82;99909.53;5081496;28;20476;-74
2023/09/21 10:04:08;;;;;;;2.40;0.90;;;;;;;24.12;68.70;99911.81;5081453;28;20468;-75
2023/09/21 10:06:36;;;;;;;3.00;1.27;;;;;;;24.19;67.89;99909.00;5081707;28;20521;-74
2023/09/21 10:09:10;;;;;;;2.50;0.97;;;;;;;24.24;67.64;99903.00;5081732;28;20451;-74
2023/09/21 10:11:39;;;;;;;3.30;0.90;;;;;;;24.39;64.55;99909.22;5080541;28;20422;-74
2023/09/21 10:14:11;;;;;;;3.07;1.47;;;;;;;24.58;65.14;99905.06;5080853;28;20452;-74
2023/09/21 10:16:38;;;;;;;2.43;0.90;;;;;;;24.65;66.48;99896.66;5082481;28;21037;-74
2023/09/21 10:19:16;;;;;;;2.57;1.00;;;;;;;24.70;66.04;99887.88;5081885;28;20445;-75
2023/09/21 10:21:45;;;;;;;2.57;1.13;;;;;;;24.82;64.95;99897.66;5081296;28;20428;-74
2023/09/21 10:24:18;;;;;;;2.70;1.10;;;;;;;24.88;66.29;99884.91;5086999;28;20501;-74
2023/09/21 10:26:46;;;;;;;2.50;0.80;;;;;;;25.02;66.29;99887.50;5094766;28;20471;-75
2023/09/21 10:29:13;;;;;;;3.03;1.03;;;;;;;25.11;64.22;99879.47;5093181;28;20445;-75
2023/09/21 10:31:44;;;;;;;2.20;0.77;;;;;;;25.32;61.61;99886.72;5092185;28;20444;-75
2023/09/21 10:34:14;;;;;;;2.20;0.80;;;;;;;25.50;60.17;99869.00;5092251;28;20428;-75
2023/09/21 10:36:49;;;;;;;6.07;0.90;;;;;;;25.62;60.39;99854.53;5094009;28;20487;-75
2023/09/21 10:39:28;;;;;;;2.23;0.73;;;;;;;25.70;60.29;99855.22;5074557;28;20425;-73
2023/09/21 10:42:33;;;;;;;2.57;0.90;;;;;;;25.83;60.78;99859.75;5074025;28;20425;-74
2023/09/21 10:45:06;;;;;;;3.20;1.10;;;;;;;25.99;59.54;99859.09;5076094;28;20425;-73
2023/09/21 10:47:41;;;;;;;2.20;0.60;;;;;;;26.15;58.88;99852.84;5098146;28;20441;-73
2023/09/21 10:50:12;;;;;;;2.40;0.70;;;;;;;26.31;57.81;99852.94;5101745;28;20437;-73
2023/09/21 10:52:41;;;;;;;2.90;1.00;;;;;;;26.44;57.60;99855.91;5097649;28;20432;-73
2023/09/21 10:55:09;;;;;;;2.93;1.03;;;;;;;26.55;56.88;99859.22;5079665;28;20448;-75
2023/09/21 10:57:36;;;;;;;2.40;0.90;;;;;;;26.64;57.39;99858.66;5080496;28;20469;-73
2023/09/21 11:00:07;;;;;;;2.60;0.90;;;;;;;26.75;55.04;99859.22;5080113;28;20821;-75
2023/09/21 11:02:36;;;;;;;2.23;0.83;;;;;;;26.99;53.40;99859.88;5078295;28;20452;-74
2023/09/21 11:05:02;;;;;;;2.20;0.80;;;;;;;27.15;52.49;99856.41;5078655;28;20469;-74
2023/09/21 11:07:31;;;;;;;2.53;1.03;;;;;;;27.30;53.96;99859.63;5079296;28;20496;-74
2023/09/21 11:09:58;;;;;;;2.40;0.80;;;;;;;27.64;51.84;99859.19;5080746;28;20445;-74
2023/09/21 11:12:24;;;;;;;2.10;0.60;;;;;;;28.38;50.20;99859.28;5080309;28;20471;-74
2023/09/21 11:14:51;;;;;;;2.50;0.83;;;;;;;29.33;48.34;99862.44;5080258;28;20480;-75
2023/09/21 11:17:18;;;;;;;2.43;1.03;;;;;;;30.40;47.45;99860.84;5079201;28;20484;-74
2023/09/21 11:19:46;;;;;;;2.47;0.70;;;;;;;31.22;43.04;99852.19;5081553;28;20496;-75
2023/09/21 11:22:14;;;;;;;2.30;0.70;;;;;;;31.67;41.74;99847.97;5080347;28;20803;-74
2023/09/21 11:24:43;;;;;;;3.07;0.90;;;;;;;31.99;39.76;99849.41;5078401;28;20492;-74
2023/09/21 11:27:11;;;;;;;2.63;1.10;;;;;;;32.15;39.81;99845.53;5078388;28;20489;-74
2023/09/21 11:29:40;;;;;;;1.83;0.47;;;;;;;32.49;39.46;99855.63;5079073;28;20536;-75
2023/09/21 11:32:08;;;;;;;2.27;0.70;;;;;;;32.56;38.55;99843.31;5079485;28;20480;-74
2023/09/21 11:34:40;;;;;;;2.40;0.60;;;;;;;32.47;37.29;99846.91;5078664;28;20442;-74